sensor_id;sensor_type;location;lat;lon;timestamp;P1;durP1;ratioP1;P2;durP2;ratioP2
38513;SDS011;24282;48.400;10.808;2023-03-08T00:00:04;8.83;;;6.50;;
38513;SDS011;24282;48.400;10.808;2023-03-08T00:05:01;9.70;;;5.67;;
38513;SDS011;24282;48.400;10.808;2023-03-08T00:07:28;11.13;;;7.10;;
38513;SDS011;24282;48.400;10.808;2023-03-08T00:09:53;9.43;;;5.90;;
38513;SDS011;24282;48.400;10.808;2023-03-08T00:12:19;10.83;;;7.37;;
38513;SDS011;24282;48.400;10.808;2023-03-08T00:14:47;11.80;;;6.60;;
38513;SDS011;24282;48.400;10.808;2023-03-08T00:17:13;10.80;;;6.47;;
38513;SDS011;24282;48.400;10.808;2023-03-08T00:19:39;9.77;;;6.63;;
38513;SDS011;24282;48.400;10.808;2023-03-08T00:22:05;10.40;;;6.40;;
38513;SDS011;24282;48.400;10.808;2023-03-08T00:24:31;11.23;;;6.90;;
38513;SDS011;24282;48.400;10.808;2023-03-08T00:26:57;11.43;;;6.77;;
38513;SDS011;24282;48.400;10.808;2023-03-08T00:29:23;12.20;;;6.87;;
38513;SDS011;24282;48.400;10.808;2023-03-08T00:31:49;10.17;;;5.97;;
38513;SDS011;24282;48.400;10.808;2023-03-08T00:34:15;10.37;;;6.20;;
38513;SDS011;24282;48.400;10.808;2023-03-08T00:36:41;11.90;;;6.47;;
38513;SDS011;24282;48.400;10.808;2023-03-08T00:39:07;10.40;;;6.87;;
38513;SDS011;24282;48.400;10.808;2023-03-08T00:41:35;10.80;;;6.53;;
38513;SDS011;24282;48.400;10.808;2023-03-08T00:44:01;10.93;;;6.30;;
38513;SDS011;24282;48.400;10.808;2023-03-08T00:46:28;12.17;;;7.47;;
38513;SDS011;24282;48.400;10.808;2023-03-08T00:48:53;11.83;;;7.33;;
38513;SDS011;24282;48.400;10.808;2023-03-08T00:51:19;13.97;;;7.10;;
38513;SDS011;24282;48.400;10.808;2023-03-08T00:53:46;9.80;;;6.80;;
38513;SDS011;24282;48.400;10.808;2023-03-08T00:56:12;10.17;;;6.77;;
38513;SDS011;24282;48.400;10.808;2023-03-08T00:58:39;10.57;;;6.80;;
38513;SDS011;24282;48.400;10.808;2023-03-08T01:01:05;10.50;;;6.47;;
38513;SDS011;24282;48.400;10.808;2023-03-08T01:03:33;11.17;;;6.80;;
38513;SDS011;24282;48.400;10.808;2023-03-08T01:06:09;11.13;;;6.73;;
38513;SDS011;24282;48.400;10.808;2023-03-08T01:08:39;9.40;;;6.50;;
38513;SDS011;24282;48.400;10.808;2023-03-08T01:11:06;9.83;;;5.87;;
38513;SDS011;24282;48.400;10.808;2023-03-08T01:13:38;11.00;;;6.97;;
38513;SDS011;24282;48.400;10.808;2023-03-08T01:16:12;11.17;;;7.23;;
38513;SDS011;24282;48.400;10.808;2023-03-08T01:18:42;12.50;;;6.53;;
38513;SDS011;24282;48.400;10.808;2023-03-08T01:21:08;9.97;;;6.17;;
38513;SDS011;24282;48.400;10.808;2023-03-08T01:23:34;10.33;;;6.20;;
38513;SDS011;24282;48.400;10.808;2023-03-08T01:26:01;10.63;;;6.77;;
38513;SDS011;24282;48.400;10.808;2023-03-08T01:28:29;12.53;;;7.73;;
38513;SDS011;24282;48.400;10.808;2023-03-08T01:31:03;10.23;;;6.20;;
38513;SDS011;24282;48.400;10.808;2023-03-08T01:33:32;10.33;;;6.90;;
38513;SDS011;24282;48.400;10.808;2023-03-08T01:35:58;10.37;;;6.77;;
38513;SDS011;24282;48.400;10.808;2023-03-08T01:38:23;11.40;;;6.40;;
38513;SDS011;24282;48.400;10.808;2023-03-08T01:40:54;11.27;;;7.00;;
38513;SDS011;24282;48.400;10.808;2023-03-08T01:48:52;11.70;;;5.83;;
38513;SDS011;24282;48.400;10.808;2023-03-08T01:52:02;10.70;;;6.57;;
38513;SDS011;24282;48.400;10.808;2023-03-08T01:54:38;10.47;;;6.40;;
38513;SDS011;24282;48.400;10.808;2023-03-08T01:57:08;11.67;;;6.83;;
38513;SDS011;24282;48.400;10.808;2023-03-08T01:59:39;12.73;;;6.57;;
38513;SDS011;24282;48.400;10.808;2023-03-08T02:02:07;8.33;;;5.83;;
38513;SDS011;24282;48.400;10.808;2023-03-08T02:04:33;12.17;;;6.53;;
38513;SDS011;24282;48.400;10.808;2023-03-08T02:07:00;10.97;;;6.43;;
38513;SDS011;24282;48.400;10.808;2023-03-08T02:09:26;10.53;;;6.40;;
38513;SDS011;24282;48.400;10.808;2023-03-08T02:11:52;10.37;;;6.43;;
38513;SDS011;24282;48.400;10.808;2023-03-08T02:14:21;11.90;;;7.33;;
38513;SDS011;24282;48.400;10.808;2023-03-08T02:16:49;10.67;;;5.90;;
38513;SDS011;24282;48.400;10.808;2023-03-08T02:19:16;11.67;;;6.40;;
38513;SDS011;24282;48.400;10.808;2023-03-08T02:21:47;9.70;;;6.43;;
38513;SDS011;24282;48.400;10.808;2023-03-08T02:24:17;10.00;;;6.63;;
38513;SDS011;24282;48.400;10.808;2023-03-08T02:26:44;10.47;;;6.13;;
38513;SDS011;24282;48.400;10.808;2023-03-08T02:29:11;10.27;;;6.27;;
38513;SDS011;24282;48.400;10.808;2023-03-08T02:31:37;10.93;;;6.50;;
38513;SDS011;24282;48.400;10.808;2023-03-08T02:34:02;10.37;;;6.50;;
38513;SDS011;24282;48.400;10.808;2023-03-08T02:36:28;10.20;;;6.60;;
38513;SDS011;24282;48.400;10.808;2023-03-08T02:38:54;11.53;;;7.07;;
38513;SDS011;24282;48.400;10.808;2023-03-08T02:41:20;11.57;;;7.07;;
38513;SDS011;24282;48.400;10.808;2023-03-08T02:43:45;9.53;;;6.30;;
38513;SDS011;24282;48.400;10.808;2023-03-08T02:46:12;11.23;;;6.73;;
38513;SDS011;24282;48.400;10.808;2023-03-08T02:48:38;12.40;;;6.50;;
38513;SDS011;24282;48.400;10.808;2023-03-08T02:51:04;11.80;;;7.10;;
38513;SDS011;24282;48.400;10.808;2023-03-08T02:53:30;11.87;;;7.23;;
38513;SDS011;24282;48.400;10.808;2023-03-08T02:55:57;11.77;;;7.20;;
38513;SDS011;24282;48.400;10.808;2023-03-08T02:58:23;10.87;;;6.17;;
38513;SDS011;24282;48.400;10.808;2023-03-08T03:00:49;12.00;;;7.63;;
38513;SDS011;24282;48.400;10.808;2023-03-08T03:03:15;13.53;;;7.80;;
38513;SDS011;24282;48.400;10.808;2023-03-08T03:05:41;11.43;;;6.40;;
38513;SDS011;24282;48.400;10.808;2023-03-08T03:08:11;12.13;;;7.50;;
38513;SDS011;24282;48.400;10.808;2023-03-08T03:10:38;12.20;;;7.77;;
38513;SDS011;24282;48.400;10.808;2023-03-08T03:13:04;13.77;;;8.13;;
38513;SDS011;24282;48.400;10.808;2023-03-08T03:15:31;11.97;;;7.17;;
38513;SDS011;24282;48.400;10.808;2023-03-08T03:17:58;10.30;;;7.30;;
38513;SDS011;24282;48.400;10.808;2023-03-08T03:20:24;12.47;;;7.30;;
38513;SDS011;24282;48.400;10.808;2023-03-08T03:22:50;11.33;;;7.43;;
38513;SDS011;24282;48.400;10.808;2023-03-08T03:25:19;14.27;;;8.10;;
38513;SDS011;24282;48.400;10.808;2023-03-08T03:27:47;13.17;;;7.77;;
38513;SDS011;24282;48.400;10.808;2023-03-08T03:30:13;12.63;;;8.03;;
38513;SDS011;24282;48.400;10.808;2023-03-08T03:32:39;12.77;;;7.70;;
38513;SDS011;24282;48.400;10.808;2023-03-08T03:35:06;14.07;;;7.43;;
38513;SDS011;24282;48.400;10.808;2023-03-08T03:37:33;13.27;;;8.00;;
38513;SDS011;24282;48.400;10.808;2023-03-08T03:40:02;12.70;;;7.97;;
38513;SDS011;24282;48.400;10.808;2023-03-08T03:42:29;12.67;;;8.23;;
38513;SDS011;24282;48.400;10.808;2023-03-08T03:45:03;11.93;;;7.87;;
38513;SDS011;24282;48.400;10.808;2023-03-08T03:47:30;14.20;;;8.70;;
38513;SDS011;24282;48.400;10.808;2023-03-08T03:49:58;14.80;;;8.33;;
38513;SDS011;24282;48.400;10.808;2023-03-08T03:52:29;14.30;;;8.83;;
38513;SDS011;24282;48.400;10.808;2023-03-08T03:55:00;13.20;;;7.97;;
38513;SDS011;24282;48.400;10.808;2023-03-08T03:57:26;13.23;;;7.97;;
38513;SDS011;24282;48.400;10.808;2023-03-08T03:59:52;12.00;;;7.23;;
38513;SDS011;24282;48.400;10.808;2023-03-08T04:02:20;12.50;;;8.17;;
38513;SDS011;24282;48.400;10.808;2023-03-08T04:04:52;13.90;;;8.13;;
38513;SDS011;24282;48.400;10.808;2023-03-08T04:07:21;13.03;;;7.47;;
38513;SDS011;24282;48.400;10.808;2023-03-08T04:09:54;11.95;;;8.35;;
38513;SDS011;24282;48.400;10.808;2023-03-08T04:12:20;14.43;;;9.10;;
38513;SDS011;24282;48.400;10.808;2023-03-08T04:14:45;11.77;;;7.03;;
38513;SDS011;24282;48.400;10.808;2023-03-08T04:17:13;15.17;;;8.57;;
38513;SDS011;24282;48.400;10.808;2023-03-08T04:19:48;15.97;;;8.87;;
38513;SDS011;24282;48.400;10.808;2023-03-08T04:22:16;13.83;;;8.50;;
38513;SDS011;24282;48.400;10.808;2023-03-08T04:24:47;14.50;;;9.10;;
38513;SDS011;24282;48.400;10.808;2023-03-08T04:27:18;12.63;;;8.40;;
38513;SDS011;24282;48.400;10.808;2023-03-08T04:29:44;14.23;;;8.47;;
38513;SDS011;24282;48.400;10.808;2023-03-08T04:32:10;13.47;;;8.57;;
38513;SDS011;24282;48.400;10.808;2023-03-08T04:34:44;17.10;;;9.60;;
38513;SDS011;24282;48.400;10.808;2023-03-08T04:37:13;13.17;;;8.23;;
38513;SDS011;24282;48.400;10.808;2023-03-08T04:39:41;15.20;;;9.47;;
38513;SDS011;24282;48.400;10.808;2023-03-08T04:42:08;14.23;;;9.27;;
38513;SDS011;24282;48.400;10.808;2023-03-08T04:44:34;14.73;;;8.17;;
38513;SDS011;24282;48.400;10.808;2023-03-08T04:47:02;12.70;;;8.80;;
38513;SDS011;24282;48.400;10.808;2023-03-08T04:49:35;14.52;;;9.57;;
38513;SDS011;24282;48.400;10.808;2023-03-08T04:52:02;14.20;;;8.27;;
38513;SDS011;24282;48.400;10.808;2023-03-08T04:54:29;14.90;;;8.80;;
38513;SDS011;24282;48.400;10.808;2023-03-08T04:57:02;13.15;;;8.57;;
38513;SDS011;24282;48.400;10.808;2023-03-08T04:59:30;14.57;;;8.73;;
38513;SDS011;24282;48.400;10.808;2023-03-08T05:01:58;14.40;;;8.93;;
38513;SDS011;24282;48.400;10.808;2023-03-08T05:04:25;15.70;;;9.27;;
38513;SDS011;24282;48.400;10.808;2023-03-08T05:06:51;21.10;;;11.87;;
38513;SDS011;24282;48.400;10.808;2023-03-08T05:09:21;21.20;;;12.23;;
38513;SDS011;24282;48.400;10.808;2023-03-08T05:11:49;18.57;;;10.87;;
38513;SDS011;24282;48.400;10.808;2023-03-08T05:14:15;19.80;;;11.27;;
38513;SDS011;24282;48.400;10.808;2023-03-08T05:16:41;16.90;;;11.03;;
38513;SDS011;24282;48.400;10.808;2023-03-08T05:19:07;16.90;;;9.77;;
38513;SDS011;24282;48.400;10.808;2023-03-08T05:24:06;17.60;;;11.17;;
38513;SDS011;24282;48.400;10.808;2023-03-08T05:26:35;17.33;;;11.20;;
38513;SDS011;24282;48.400;10.808;2023-03-08T05:29:01;17.73;;;11.73;;
38513;SDS011;24282;48.400;10.808;2023-03-08T05:31:31;18.10;;;12.13;;
38513;SDS011;24282;48.400;10.808;2023-03-08T05:34:01;19.07;;;11.73;;
38513;SDS011;24282;48.400;10.808;2023-03-08T05:39:01;15.80;;;11.13;;
38513;SDS011;24282;48.400;10.808;2023-03-08T05:41:37;16.77;;;11.30;;
38513;SDS011;24282;48.400;10.808;2023-03-08T05:44:03;19.63;;;12.43;;
38513;SDS011;24282;48.400;10.808;2023-03-08T05:46:32;17.53;;;11.47;;
38513;SDS011;24282;48.400;10.808;2023-03-08T05:49:00;17.57;;;10.80;;
38513;SDS011;24282;48.400;10.808;2023-03-08T05:51:29;17.50;;;11.17;;
38513;SDS011;24282;48.400;10.808;2023-03-08T05:53:55;17.83;;;11.90;;
38513;SDS011;24282;48.400;10.808;2023-03-08T05:56:21;19.37;;;11.53;;
38513;SDS011;24282;48.400;10.808;2023-03-08T05:59:01;22.10;;;11.70;;
38513;SDS011;24282;48.400;10.808;2023-03-08T06:01:27;19.27;;;11.40;;
38513;SDS011;24282;48.400;10.808;2023-03-08T06:03:59;19.47;;;11.63;;
38513;SDS011;24282;48.400;10.808;2023-03-08T06:06:29;23.03;;;12.80;;
38513;SDS011;24282;48.400;10.808;2023-03-08T06:08:58;19.60;;;12.47;;
38513;SDS011;24282;48.400;10.808;2023-03-08T06:11:24;18.37;;;11.77;;
38513;SDS011;24282;48.400;10.808;2023-03-08T06:13:52;18.17;;;11.37;;
38513;SDS011;24282;48.400;10.808;2023-03-08T06:16:21;18.90;;;12.07;;
38513;SDS011;24282;48.400;10.808;2023-03-08T06:18:47;17.83;;;11.67;;
38513;SDS011;24282;48.400;10.808;2023-03-08T06:21:15;18.73;;;12.30;;
38513;SDS011;24282;48.400;10.808;2023-03-08T06:23:44;18.10;;;11.63;;
38513;SDS011;24282;48.400;10.808;2023-03-08T06:26:11;18.40;;;11.67;;
38513;SDS011;24282;48.400;10.808;2023-03-08T06:28:38;22.60;;;13.27;;
38513;SDS011;24282;48.400;10.808;2023-03-08T06:31:09;18.53;;;12.63;;
38513;SDS011;24282;48.400;10.808;2023-03-08T06:33:37;21.50;;;12.93;;
38513;SDS011;24282;48.400;10.808;2023-03-08T06:38:31;23.23;;;13.50;;
38513;SDS011;24282;48.400;10.808;2023-03-08T06:40:59;23.33;;;14.37;;
38513;SDS011;24282;48.400;10.808;2023-03-08T06:43:26;22.30;;;13.93;;
38513;SDS011;24282;48.400;10.808;2023-03-08T06:45:52;22.53;;;13.90;;
38513;SDS011;24282;48.400;10.808;2023-03-08T06:48:18;20.10;;;12.93;;
38513;SDS011;24282;48.400;10.808;2023-03-08T06:50:43;18.63;;;12.20;;
38513;SDS011;24282;48.400;10.808;2023-03-08T06:53:10;20.50;;;13.03;;
38513;SDS011;24282;48.400;10.808;2023-03-08T06:55:51;21.47;;;14.37;;
38513;SDS011;24282;48.400;10.808;2023-03-08T06:58:17;26.30;;;15.07;;
38513;SDS011;24282;48.400;10.808;2023-03-08T07:00:43;21.00;;;13.13;;
38513;SDS011;24282;48.400;10.808;2023-03-08T07:03:10;22.07;;;13.53;;
38513;SDS011;24282;48.400;10.808;2023-03-08T07:05:37;23.07;;;14.50;;
38513;SDS011;24282;48.400;10.808;2023-03-08T07:08:03;20.67;;;13.23;;
38513;SDS011;24282;48.400;10.808;2023-03-08T07:10:29;19.57;;;12.83;;
38513;SDS011;24282;48.400;10.808;2023-03-08T07:12:55;20.30;;;12.10;;
38513;SDS011;24282;48.400;10.808;2023-03-08T07:15:21;18.77;;;12.47;;
38513;SDS011;24282;48.400;10.808;2023-03-08T07:17:49;17.33;;;11.83;;
38513;SDS011;24282;48.400;10.808;2023-03-08T07:20:17;21.47;;;12.83;;
38513;SDS011;24282;48.400;10.808;2023-03-08T07:22:43;18.50;;;12.07;;
38513;SDS011;24282;48.400;10.808;2023-03-08T07:25:11;18.40;;;11.73;;
38513;SDS011;24282;48.400;10.808;2023-03-08T07:27:38;18.27;;;12.20;;
38513;SDS011;24282;48.400;10.808;2023-03-08T07:30:04;20.60;;;12.27;;
38513;SDS011;24282;48.400;10.808;2023-03-08T07:32:34;16.80;;;11.30;;
38513;SDS011;24282;48.400;10.808;2023-03-08T07:35:00;16.83;;;10.97;;
38513;SDS011;24282;48.400;10.808;2023-03-08T07:37:25;21.37;;;12.50;;
38513;SDS011;24282;48.400;10.808;2023-03-08T07:39:51;19.13;;;12.67;;
38513;SDS011;24282;48.400;10.808;2023-03-08T07:42:17;21.57;;;14.47;;
38513;SDS011;24282;48.400;10.808;2023-03-08T07:44:48;20.30;;;12.97;;
38513;SDS011;24282;48.400;10.808;2023-03-08T07:47:14;18.17;;;12.83;;
38513;SDS011;24282;48.400;10.808;2023-03-08T07:49:40;19.43;;;14.10;;
38513;SDS011;24282;48.400;10.808;2023-03-08T07:52:06;20.17;;;12.30;;
38513;SDS011;24282;48.400;10.808;2023-03-08T07:54:31;18.50;;;13.10;;
38513;SDS011;24282;48.400;10.808;2023-03-08T07:56:57;18.53;;;11.80;;
38513;SDS011;24282;48.400;10.808;2023-03-08T07:59:23;18.20;;;12.10;;
38513;SDS011;24282;48.400;10.808;2023-03-08T08:01:48;15.57;;;11.50;;
38513;SDS011;24282;48.400;10.808;2023-03-08T08:04:14;17.93;;;11.47;;
38513;SDS011;24282;48.400;10.808;2023-03-08T08:06:40;17.60;;;12.40;;
38513;SDS011;24282;48.400;10.808;2023-03-08T08:09:07;21.87;;;13.77;;
38513;SDS011;24282;48.400;10.808;2023-03-08T08:11:36;17.13;;;11.90;;
38513;SDS011;24282;48.400;10.808;2023-03-08T08:14:03;20.60;;;13.37;;
38513;SDS011;24282;48.400;10.808;2023-03-08T08:16:29;19.07;;;13.67;;
38513;SDS011;24282;48.400;10.808;2023-03-08T08:18:55;18.13;;;12.80;;
38513;SDS011;24282;48.400;10.808;2023-03-08T08:21:21;16.37;;;11.53;;
38513;SDS011;24282;48.400;10.808;2023-03-08T08:23:47;18.07;;;11.30;;
38513;SDS011;24282;48.400;10.808;2023-03-08T08:26:17;17.53;;;11.97;;
38513;SDS011;24282;48.400;10.808;2023-03-08T08:28:46;18.17;;;12.37;;
38513;SDS011;24282;48.400;10.808;2023-03-08T08:31:15;18.33;;;12.07;;
38513;SDS011;24282;48.400;10.808;2023-03-08T08:33:42;22.10;;;13.07;;
38513;SDS011;24282;48.400;10.808;2023-03-08T08:36:10;22.73;;;14.07;;
38513;SDS011;24282;48.400;10.808;2023-03-08T08:38:37;18.70;;;13.80;;
38513;SDS011;24282;48.400;10.808;2023-03-08T08:41:05;20.73;;;12.17;;
38513;SDS011;24282;48.400;10.808;2023-03-08T08:43:32;21.23;;;13.17;;
38513;SDS011;24282;48.400;10.808;2023-03-08T08:45:59;20.20;;;12.40;;
38513;SDS011;24282;48.400;10.808;2023-03-08T08:48:26;19.67;;;12.63;;
38513;SDS011;24282;48.400;10.808;2023-03-08T08:50:52;21.33;;;13.23;;
38513;SDS011;24282;48.400;10.808;2023-03-08T08:53:19;19.07;;;13.67;;
38513;SDS011;24282;48.400;10.808;2023-03-08T08:55:46;23.27;;;14.30;;
38513;SDS011;24282;48.400;10.808;2023-03-08T08:58:12;17.97;;;13.13;;
38513;SDS011;24282;48.400;10.808;2023-03-08T09:00:38;20.17;;;13.37;;
38513;SDS011;24282;48.400;10.808;2023-03-08T09:03:05;19.47;;;14.03;;
38513;SDS011;24282;48.400;10.808;2023-03-08T09:05:31;17.70;;;12.20;;
38513;SDS011;24282;48.400;10.808;2023-03-08T09:07:59;20.10;;;13.53;;
38513;SDS011;24282;48.400;10.808;2023-03-08T09:10:26;19.87;;;13.60;;
38513;SDS011;24282;48.400;10.808;2023-03-08T09:12:54;19.57;;;12.73;;
38513;SDS011;24282;48.400;10.808;2023-03-08T09:15:20;18.07;;;12.43;;
38513;SDS011;24282;48.400;10.808;2023-03-08T09:17:47;21.30;;;13.93;;
38513;SDS011;24282;48.400;10.808;2023-03-08T09:20:13;19.50;;;13.17;;
38513;SDS011;24282;48.400;10.808;2023-03-08T09:22:39;18.70;;;13.17;;
38513;SDS011;24282;48.400;10.808;2023-03-08T09:25:06;17.43;;;12.63;;
38513;SDS011;24282;48.400;10.808;2023-03-08T09:27:33;18.77;;;13.30;;
38513;SDS011;24282;48.400;10.808;2023-03-08T09:29:59;18.67;;;13.60;;
38513;SDS011;24282;48.400;10.808;2023-03-08T09:32:25;18.17;;;12.47;;
38513;SDS011;24282;48.400;10.808;2023-03-08T09:34:51;20.30;;;14.63;;
38513;SDS011;24282;48.400;10.808;2023-03-08T09:37:18;17.87;;;12.93;;
38513;SDS011;24282;48.400;10.808;2023-03-08T09:39:44;20.47;;;13.03;;
38513;SDS011;24282;48.400;10.808;2023-03-08T09:42:15;17.10;;;12.80;;
38513;SDS011;24282;48.400;10.808;2023-03-08T09:47:21;20.77;;;13.63;;
38513;SDS011;24282;48.400;10.808;2023-03-08T09:49:53;19.57;;;12.97;;
38513;SDS011;24282;48.400;10.808;2023-03-08T09:53:27;17.05;;;10.98;;
38513;SDS011;24282;48.400;10.808;2023-03-08T09:55:32;20.00;;;14.73;;
38513;SDS011;24282;48.400;10.808;2023-03-08T10:08:51;23.07;;;15.83;;
38513;SDS011;24282;48.400;10.808;2023-03-08T10:11:34;24.20;;;15.87;;
38513;SDS011;24282;48.400;10.808;2023-03-08T10:14:24;23.53;;;15.33;;
38513;SDS011;24282;48.400;10.808;2023-03-08T10:16:56;21.77;;;15.20;;
38513;SDS011;24282;48.400;10.808;2023-03-08T10:19:27;20.67;;;14.40;;
38513;SDS011;24282;48.400;10.808;2023-03-08T10:21:53;19.47;;;14.13;;
38513;SDS011;24282;48.400;10.808;2023-03-08T10:24:25;20.40;;;13.50;;
38513;SDS011;24282;48.400;10.808;2023-03-08T10:26:59;19.07;;;13.93;;
38513;SDS011;24282;48.400;10.808;2023-03-08T10:29:34;20.53;;;12.93;;
38513;SDS011;24282;48.400;10.808;2023-03-08T10:31:59;15.50;;;11.77;;
38513;SDS011;24282;48.400;10.808;2023-03-08T10:34:28;18.47;;;12.30;;
38513;SDS011;24282;48.400;10.808;2023-03-08T10:37:02;16.80;;;11.90;;
38513;SDS011;24282;48.400;10.808;2023-03-08T10:39:30;17.90;;;12.60;;
38513;SDS011;24282;48.400;10.808;2023-03-08T10:41:57;17.90;;;12.60;;
38513;SDS011;24282;48.400;10.808;2023-03-08T10:44:33;18.03;;;12.50;;
38513;SDS011;24282;48.400;10.808;2023-03-08T10:49:48;19.48;;;13.13;;
38513;SDS011;24282;48.400;10.808;2023-03-08T10:52:26;19.67;;;13.27;;
38513;SDS011;24282;48.400;10.808;2023-03-08T10:57:36;21.27;;;13.77;;
38513;SDS011;24282;48.400;10.808;2023-03-08T11:02:40;17.67;;;11.97;;
38513;SDS011;24282;48.400;10.808;2023-03-08T11:05:26;18.00;;;12.10;;
38513;SDS011;24282;48.400;10.808;2023-03-08T11:07:52;15.00;;;11.63;;
38513;SDS011;24282;48.400;10.808;2023-03-08T11:10:26;20.10;;;12.37;;
38513;SDS011;24282;48.400;10.808;2023-03-08T11:13:19;18.17;;;11.53;;
38513;SDS011;24282;48.400;10.808;2023-03-08T11:15:51;15.47;;;11.57;;
38513;SDS011;24282;48.400;10.808;2023-03-08T11:18:25;16.60;;;12.13;;
38513;SDS011;24282;48.400;10.808;2023-03-08T11:23:56;17.27;;;12.27;;
38513;SDS011;24282;48.400;10.808;2023-03-08T11:34:58;18.57;;;12.90;;
38513;SDS011;24282;48.400;10.808;2023-03-08T11:37:45;20.17;;;14.13;;
38513;SDS011;24282;48.400;10.808;2023-03-08T11:58:16;18.27;;;10.93;;
38513;SDS011;24282;48.400;10.808;2023-03-08T12:00:49;14.25;;;10.07;;
38513;SDS011;24282;48.400;10.808;2023-03-08T12:03:18;14.77;;;9.77;;
38513;SDS011;24282;48.400;10.808;2023-03-08T12:05:49;13.90;;;8.30;;
38513;SDS011;24282;48.400;10.808;2023-03-08T12:08:38;8.40;;;5.77;;
38513;SDS011;24282;48.400;10.808;2023-03-08T12:11:10;7.37;;;5.23;;
38513;SDS011;24282;48.400;10.808;2023-03-08T12:14:03;6.37;;;4.17;;
38513;SDS011;24282;48.400;10.808;2023-03-08T12:16:49;6.97;;;4.37;;
38513;SDS011;24282;48.400;10.808;2023-03-08T12:27:27;7.17;;;3.77;;
38513;SDS011;24282;48.400;10.808;2023-03-08T12:32:46;6.77;;;3.77;;
38513;SDS011;24282;48.400;10.808;2023-03-08T12:37:53;6.97;;;4.53;;
38513;SDS011;24282;48.400;10.808;2023-03-08T12:40:34;5.97;;;3.70;;
38513;SDS011;24282;48.400;10.808;2023-03-08T12:45:46;6.43;;;4.20;;
38513;SDS011;24282;48.400;10.808;2023-03-08T12:48:25;10.53;;;5.13;;
38513;SDS011;24282;48.400;10.808;2023-03-08T12:56:24;3.93;;;2.93;;
38513;SDS011;24282;48.400;10.808;2023-03-08T13:01:44;7.33;;;3.60;;
38513;SDS011;24282;48.400;10.808;2023-03-08T13:07:02;8.80;;;4.93;;
38513;SDS011;24282;48.400;10.808;2023-03-08T13:17:32;7.03;;;3.10;;
38513;SDS011;24282;48.400;10.808;2023-03-08T13:19:56;4.03;;;2.77;;
38513;SDS011;24282;48.400;10.808;2023-03-08T13:22:29;4.43;;;2.83;;
38513;SDS011;24282;48.400;10.808;2023-03-08T13:25:06;4.57;;;3.00;;
38513;SDS011;24282;48.400;10.808;2023-03-08T13:30:28;4.40;;;3.00;;
38513;SDS011;24282;48.400;10.808;2023-03-08T13:33:18;4.57;;;2.43;;
38513;SDS011;24282;48.400;10.808;2023-03-08T13:36:04;5.77;;;3.23;;
38513;SDS011;24282;48.400;10.808;2023-03-08T13:38:38;3.77;;;2.30;;
38513;SDS011;24282;48.400;10.808;2023-03-08T13:41:05;3.57;;;2.30;;
38513;SDS011;24282;48.400;10.808;2023-03-08T13:43:31;3.20;;;2.33;;
38513;SDS011;24282;48.400;10.808;2023-03-08T13:45:59;4.37;;;2.17;;
38513;SDS011;24282;48.400;10.808;2023-03-08T13:48:34;5.87;;;2.83;;
38513;SDS011;24282;48.400;10.808;2023-03-08T13:51:01;3.67;;;2.20;;
38513;SDS011;24282;48.400;10.808;2023-03-08T13:53:29;3.80;;;2.50;;
38513;SDS011;24282;48.400;10.808;2023-03-08T13:55:58;3.93;;;2.07;;
38513;SDS011;24282;48.400;10.808;2023-03-08T14:00:56;2.57;;;1.70;;
38513;SDS011;24282;48.400;10.808;2023-03-08T14:03:29;4.05;;;2.33;;
38513;SDS011;24282;48.400;10.808;2023-03-08T14:05:56;3.33;;;2.10;;
38513;SDS011;24282;48.400;10.808;2023-03-08T14:08:23;3.57;;;1.80;;
38513;SDS011;24282;48.400;10.808;2023-03-08T14:11:00;6.03;;;2.40;;
38513;SDS011;24282;48.400;10.808;2023-03-08T14:13:32;2.40;;;1.60;;
38513;SDS011;24282;48.400;10.808;2023-03-08T14:16:09;3.07;;;1.80;;
38513;SDS011;24282;48.400;10.808;2023-03-08T14:18:56;2.87;;;1.43;;
38513;SDS011;24282;48.400;10.808;2023-03-08T14:21:27;2.40;;;1.60;;
38513;SDS011;24282;48.400;10.808;2023-03-08T14:23:58;3.27;;;1.80;;
38513;SDS011;24282;48.400;10.808;2023-03-08T14:26:26;1.50;;;1.10;;
38513;SDS011;24282;48.400;10.808;2023-03-08T14:34:22;3.30;;;1.47;;
38513;SDS011;24282;48.400;10.808;2023-03-08T14:36:52;2.00;;;1.23;;
38513;SDS011;24282;48.400;10.808;2023-03-08T14:39:23;1.83;;;1.17;;
38513;SDS011;24282;48.400;10.808;2023-03-08T14:41:51;2.47;;;1.27;;
38513;SDS011;24282;48.400;10.808;2023-03-08T14:44:21;1.40;;;1.00;;
38513;SDS011;24282;48.400;10.808;2023-03-08T14:46:50;2.05;;;1.00;;
38513;SDS011;24282;48.400;10.808;2023-03-08T14:49:23;2.57;;;1.20;;
38513;SDS011;24282;48.400;10.808;2023-03-08T14:51:51;2.20;;;1.20;;
38513;SDS011;24282;48.400;10.808;2023-03-08T14:54:22;4.83;;;1.00;;
38513;SDS011;24282;48.400;10.808;2023-03-08T14:56:57;1.77;;;0.97;;
38513;SDS011;24282;48.400;10.808;2023-03-08T14:59:25;3.00;;;1.57;;
38513;SDS011;24282;48.400;10.808;2023-03-08T15:01:51;1.70;;;1.20;;
38513;SDS011;24282;48.400;10.808;2023-03-08T15:04:18;1.27;;;0.90;;
38513;SDS011;24282;48.400;10.808;2023-03-08T15:06:48;2.53;;;1.13;;
38513;SDS011;24282;48.400;10.808;2023-03-08T15:09:16;1.30;;;1.00;;
38513;SDS011;24282;48.400;10.808;2023-03-08T15:11:44;1.87;;;0.87;;
38513;SDS011;24282;48.400;10.808;2023-03-08T15:14:12;1.53;;;0.93;;
38513;SDS011;24282;48.400;10.808;2023-03-08T15:16:38;2.40;;;1.00;;
38513;SDS011;24282;48.400;10.808;2023-03-08T15:19:04;2.00;;;1.10;;
38513;SDS011;24282;48.400;10.808;2023-03-08T15:21:30;3.70;;;1.40;;
38513;SDS011;24282;48.400;10.808;2023-03-08T15:23:59;1.83;;;1.10;;
38513;SDS011;24282;48.400;10.808;2023-03-08T15:26:26;2.03;;;1.00;;
38513;SDS011;24282;48.400;10.808;2023-03-08T15:28:55;1.90;;;1.20;;
38513;SDS011;24282;48.400;10.808;2023-03-08T15:31:22;1.97;;;1.10;;
38513;SDS011;24282;48.400;10.808;2023-03-08T15:33:47;1.60;;;1.10;;
38513;SDS011;24282;48.400;10.808;2023-03-08T15:36:14;2.23;;;1.27;;
38513;SDS011;24282;48.400;10.808;2023-03-08T15:38:42;2.03;;;1.30;;
38513;SDS011;24282;48.400;10.808;2023-03-08T15:41:14;2.57;;;1.40;;
38513;SDS011;24282;48.400;10.808;2023-03-08T15:43:40;1.75;;;1.00;;
38513;SDS011;24282;48.400;10.808;2023-03-08T15:46:13;2.70;;;1.63;;
38513;SDS011;24282;48.400;10.808;2023-03-08T15:48:39;2.05;;;1.42;;
38513;SDS011;24282;48.400;10.808;2023-03-08T15:51:05;2.17;;;1.13;;
38513;SDS011;24282;48.400;10.808;2023-03-08T15:53:35;0.90;;;0.73;;
38513;SDS011;24282;48.400;10.808;2023-03-08T15:56:01;1.40;;;1.00;;
38513;SDS011;24282;48.400;10.808;2023-03-08T15:58:27;2.03;;;1.10;;
38513;SDS011;24282;48.400;10.808;2023-03-08T16:00:53;4.10;;;2.10;;
38513;SDS011;24282;48.400;10.808;2023-03-08T16:03:19;2.03;;;1.17;;
38513;SDS011;24282;48.400;10.808;2023-03-08T16:05:50;2.77;;;0.90;;
38513;SDS011;24282;48.400;10.808;2023-03-08T16:08:16;1.50;;;0.90;;
38513;SDS011;24282;48.400;10.808;2023-03-08T16:10:42;2.93;;;1.60;;
38513;SDS011;24282;48.400;10.808;2023-03-08T16:13:08;4.80;;;1.40;;
38513;SDS011;24282;48.400;10.808;2023-03-08T16:15:34;1.97;;;1.00;;
38513;SDS011;24282;48.400;10.808;2023-03-08T16:18:03;2.87;;;1.40;;
38513;SDS011;24282;48.400;10.808;2023-03-08T16:20:28;1.90;;;1.10;;
38513;SDS011;24282;48.400;10.808;2023-03-08T16:22:54;1.73;;;1.00;;